Terminal Aerodrome Forecast
Issued by NWS

Home | Current Version | Previous Version | Text Only | Print | Product List | Glossary On
Versions: 1 2 3 4 5 6 7 8 9 10 11 12 13 14 15 16 17 18
000
FTUS43 KICT 060242 AAA
TAFHUT
TAF AMD
KHUT 060242Z 0603/0624 14009KT P6SM VCSH SCT010 OVC018
     FM060500 15013KT 6SM -RA SCT010 OVC018
      TEMPO 0605/0609 5SM -RA OVC008
     FM061500 17017G22KT P6SM VCSH OVC013=

USA.gov is the U.S. government's official web portal to all federal, state and local government web resources and services.